Fykan — LLDJ — position and weather

sailwx.info

Track history (hours):
 
Tides and Currents Weather Stations Pressure Air Temp Water Temp Dewpoint Dewpoint Depression Visibility Wind Speed Wind Dir Waves Ship Positions

Fykan

Last reported at 2014-Jul-30 20:29 UTC. Time now 2014-Jul-30 21:15 UTC.
Position N 66°34' E 012°50'.

Length 52 m; draft 3.3 m.

Type: Ship. MMSI: 259681000.

Date/timePositionNaut miles runAvg speedWind from/ knotsBaromVisibWave heightAir tempDewpointWater temp
2014-Jul-30 20:29N 66°34' E 012°50'9 1.7
2014-Jul-30 15:21N 66°38' E 013°08'4 5.0
2014-Jul-30 14:28N 66°36' E 012°59'6 5.7
2014-Jul-30 13:29N 66°35' E 012°45'0 0.1
2014-Jul-30 10:30N 66°34' E 012°46'5 5.6
2014-Jul-30 09:33N 66°36' E 012°59'0 0.1
2014-Jul-30 06:24N 66°36' E 012°59'4 5.0
2014-Jul-30 05:32N 66°34' E 012°50'1 0.2
2014-Jul-29 20:33N 66°34' E 012°47'3 0.6
2014-Jul-29 16:31N 66°34' E 012°53'1 0.2
2014-Jul-29 10:31N 66°34' E 012°50'4 0.1
2014-Jul-28 06:23N 66°36' E 012°59'4 5.0
2014-Jul-28 05:34N 66°34' E 012°50'4 0.5
2014-Jul-27 21:10N 66°36' E 012°41'6 6.4
2014-Jul-27 20:18N 66°36' E 012°55'6 6.2
2014-Jul-27 19:23N 66°38' E 013°08'3 3.8
2014-Jul-27 18:33N 66°36' E 013°12'3 2.4
2014-Jul-27 17:19N 66°33' E 013°12'5 5.5
2014-Jul-27 16:23N 66°38' E 013°13'5 6.4
2014-Jul-27 15:33N 66°37' E 012°59'5 5.2
2014-Jul-27 14:32N 66°34' E 012°50'1 0.1
2014-Jul-26 10:25N 66°34' E 012°47'5 5.6
2014-Jul-26 09:33N 66°35' E 012°59'5 2.2
2014-Jul-26 07:20N 66°38' E 013°09'5 4.8
2014-Jul-26 06:23N 66°36' E 012°59'4 5.0
2014-Jul-26 05:31N 66°34' E 012°50'1 0.1
2014-Jul-25 20:32N 66°34' E 012°48'5 1.4
2014-Jul-25 17:07N 66°36' E 012°59'3 5.3
2014-Jul-25 16:33N 66°34' E 012°54'1 0.2
2014-Jul-25 10:27N 66°34' E 012°50'8 2.1
2014-Jul-25 06:33N 66°34' E 013°11'5 5.0
2014-Jul-25 05:30N 66°37' E 012°59'5 5.2
2014-Jul-25 04:33N 66°34' E 012°50'4 0.4
2014-Jul-24 18:25N 66°35' E 012°42'7 1.7
2014-Jul-24 14:29N 66°36' E 012°59'5 5.5
2014-Jul-24 13:33N 66°34' E 012°47'3 1.1
2014-Jul-24 11:14N 66°36' E 012°42'5 7.6
2014-Jul-24 10:33N 66°34' E 012°54'4 3.8
2014-Jul-24 09:34N 66°37' E 012°60'7 0.4
2014-Jul-23 15:33N 66°38' E 013°18'3 0.4
2014-Jul-23 07:24N 66°38' E 013°09'4 4.5
2014-Jul-23 06:24N 66°37' E 012°59'5 5.1
2014-Jul-23 05:31N 66°34' E 012°50'0 0.0
2014-Jul-22 20:33N 66°34' E 012°50'1 0.4
2014-Jul-22 16:29N 66°34' E 012°54'6 1.5
2014-Jul-22 12:32N 66°36' E 012°40'5 2.4
2014-Jul-22 10:33N 66°34' E 012°50'7 1.7
2014-Jul-22 06:29N 66°34' E 013°07'5 4.7
2014-Jul-22 05:30N 66°37' E 012°59'5 5.4
2014-Jul-22 04:32N 66°34' E 012°50'5 0.7
2014-Jul-21 21:33N 66°36' E 012°40'1 0.4
2014-Jul-21 19:23N 66°36' E 012°41'7 7.1
2014-Jul-21 18:25N 66°34' E 012°58'2 0.4
2014-Jul-21 14:33N 66°36' E 012°59'5 5.0
2014-Jul-21 13:32N 66°34' E 012°47'1 0.3
2014-Jul-21 11:20N 66°35' E 012°45'5 6.3
2014-Jul-21 10:32N 66°34' E 012°58'3 0.7
2014-Jul-21 06:29N 66°37' E 012°59'5 5.2
2014-Jul-21 05:32N 66°34' E 012°50'2 0.3
2014-Jul-20 21:31N 66°35' E 012°45'6 5.6
2014-Jul-20 20:31N 66°35' E 012°59'  
Track history (hours):
 
Tides and Currents Weather Stations Pressure Air Temp Water Temp Dewpoint Dewpoint Depression Visibility Wind Speed Wind Dir Waves Ship Positions

Fykan

Last reported at 2014-Jul-30 20:29 UTC. Time now 2014-Jul-30 21:15 UTC.
Position N 66°34' E 012°50'.

Length 52 m; draft 3.3 m.

Type: Ship. MMSI: 259681000.

Date/timePositionNaut miles runAvg speedWind from/ knotsBaromVisibWave heightAir tempDewpointWater temp
2014-Jul-30 20:29N 66°34' E 012°50'9 1.7
2014-Jul-30 15:21N 66°38' E 013°08'4 5.0
2014-Jul-30 14:28N 66°36' E 012°59'6 5.7
2014-Jul-30 13:29N 66°35' E 012°45'0 0.1
2014-Jul-30 10:30N 66°34' E 012°46'5 5.6
2014-Jul-30 09:33N 66°36' E 012°59'0 0.1
2014-Jul-30 06:24N 66°36' E 012°59'4 5.0
2014-Jul-30 05:32N 66°34' E 012°50'1 0.2
2014-Jul-29 20:33N 66°34' E 012°47'3 0.6
2014-Jul-29 16:31N 66°34' E 012°53'1 0.2
2014-Jul-29 10:31N 66°34' E 012°50'4 0.1
2014-Jul-28 06:23N 66°36' E 012°59'4 5.0
2014-Jul-28 05:34N 66°34' E 012°50'4 0.5
2014-Jul-27 21:10N 66°36' E 012°41'6 6.4
2014-Jul-27 20:18N 66°36' E 012°55'6 6.2
2014-Jul-27 19:23N 66°38' E 013°08'3 3.8
2014-Jul-27 18:33N 66°36' E 013°12'3 2.4
2014-Jul-27 17:19N 66°33' E 013°12'5 5.5
2014-Jul-27 16:23N 66°38' E 013°13'5 6.4
2014-Jul-27 15:33N 66°37' E 012°59'5 5.2
2014-Jul-27 14:32N 66°34' E 012°50'1 0.1
2014-Jul-26 10:25N 66°34' E 012°47'5 5.6
2014-Jul-26 09:33N 66°35' E 012°59'5 2.2
2014-Jul-26 07:20N 66°38' E 013°09'5 4.8
2014-Jul-26 06:23N 66°36' E 012°59'4 5.0
2014-Jul-26 05:31N 66°34' E 012°50'1 0.1
2014-Jul-25 20:32N 66°34' E 012°48'5 1.4
2014-Jul-25 17:07N 66°36' E 012°59'3 5.3
2014-Jul-25 16:33N 66°34' E 012°54'1 0.2
2014-Jul-25 10:27N 66°34' E 012°50'8 2.1
2014-Jul-25 06:33N 66°34' E 013°11'5 5.0
2014-Jul-25 05:30N 66°37' E 012°59'5 5.2
2014-Jul-25 04:33N 66°34' E 012°50'4 0.4
2014-Jul-24 18:25N 66°35' E 012°42'7 1.7
2014-Jul-24 14:29N 66°36' E 012°59'5 5.5
2014-Jul-24 13:33N 66°34' E 012°47'3 1.1
2014-Jul-24 11:14N 66°36' E 012°42'5 7.6
2014-Jul-24 10:33N 66°34' E 012°54'4 3.8
2014-Jul-24 09:34N 66°37' E 012°60'7 0.4
2014-Jul-23 15:33N 66°38' E 013°18'3 0.4
2014-Jul-23 07:24N 66°38' E 013°09'4 4.5
2014-Jul-23 06:24N 66°37' E 012°59'5 5.1
2014-Jul-23 05:31N 66°34' E 012°50'0 0.0
2014-Jul-22 20:33N 66°34' E 012°50'1 0.4
2014-Jul-22 16:29N 66°34' E 012°54'6 1.5
2014-Jul-22 12:32N 66°36' E 012°40'5 2.4
2014-Jul-22 10:33N 66°34' E 012°50'7 1.7
2014-Jul-22 06:29N 66°34' E 013°07'5 4.7
2014-Jul-22 05:30N 66°37' E 012°59'5 5.4
2014-Jul-22 04:32N 66°34' E 012°50'5 0.7
2014-Jul-21 21:33N 66°36' E 012°40'1 0.4
2014-Jul-21 19:23N 66°36' E 012°41'7 7.1
2014-Jul-21 18:25N 66°34' E 012°58'2 0.4
2014-Jul-21 14:33N 66°36' E 012°59'5 5.0
2014-Jul-21 13:32N 66°34' E 012°47'1 0.3
2014-Jul-21 11:20N 66°35' E 012°45'5 6.3
2014-Jul-21 10:32N 66°34' E 012°58'3 0.7
2014-Jul-21 06:29N 66°37' E 012°59'5 5.2
2014-Jul-21 05:32N 66°34' E 012°50'2 0.3
2014-Jul-20 21:31N 66°35' E 012°45'6 5.6
2014-Jul-20 20:31N 66°35' E 012°59'  

Dump ship's entire track history